sensor_id;sensor_type;location;lat;lon;timestamp;temperature;humidity
23633;DHT22;11993;48.748;9.166;2023-02-01T00:01:56;2.40;88.50
23633;DHT22;11993;48.748;9.166;2023-02-01T00:04:22;2.40;88.80
23633;DHT22;11993;48.748;9.166;2023-02-01T00:06:47;2.40;88.80
23633;DHT22;11993;48.748;9.166;2023-02-01T00:09:13;2.40;88.90
23633;DHT22;11993;48.748;9.166;2023-02-01T00:11:39;2.40;88.90
23633;DHT22;11993;48.748;9.166;2023-02-01T00:14:05;2.40;88.80
23633;DHT22;11993;48.748;9.166;2023-02-01T00:16:32;2.40;88.80
23633;DHT22;11993;48.748;9.166;2023-02-01T00:19:11;2.30;88.90
23633;DHT22;11993;48.748;9.166;2023-02-01T00:21:37;2.40;88.80
23633;DHT22;11993;48.748;9.166;2023-02-01T00:24:03;2.40;88.70
23633;DHT22;11993;48.748;9.166;2023-02-01T00:26:40;2.50;88.50
23633;DHT22;11993;48.748;9.166;2023-02-01T00:29:11;2.40;88.50
23633;DHT22;11993;48.748;9.166;2023-02-01T00:31:37;2.40;88.60
23633;DHT22;11993;48.748;9.166;2023-02-01T00:34:03;2.40;88.40
23633;DHT22;11993;48.748;9.166;2023-02-01T00:36:29;2.50;88.50
23633;DHT22;11993;48.748;9.166;2023-02-01T00:38:55;2.50;88.40
23633;DHT22;11993;48.748;9.166;2023-02-01T00:41:22;2.60;88.20
23633;DHT22;11993;48.748;9.166;2023-02-01T00:43:50;2.60;88.10
23633;DHT22;11993;48.748;9.166;2023-02-01T00:46:17;2.50;88.10
23633;DHT22;11993;48.748;9.166;2023-02-01T00:48:43;2.50;88.20
23633;DHT22;11993;48.748;9.166;2023-02-01T00:51:14;2.50;88.20
23633;DHT22;11993;48.748;9.166;2023-02-01T00:53:40;2.60;88.10
23633;DHT22;11993;48.748;9.166;2023-02-01T00:56:06;2.60;88.10
23633;DHT22;11993;48.748;9.166;2023-02-01T00:58:32;2.60;88.00
23633;DHT22;11993;48.748;9.166;2023-02-01T01:01:03;2.60;88.00
23633;DHT22;11993;48.748;9.166;2023-02-01T01:03:29;2.60;87.90
23633;DHT22;11993;48.748;9.166;2023-02-01T01:05:59;2.60;87.80
23633;DHT22;11993;48.748;9.166;2023-02-01T01:08:25;2.60;87.80
23633;DHT22;11993;48.748;9.166;2023-02-01T01:10:51;2.60;87.70
23633;DHT22;11993;48.748;9.166;2023-02-01T01:13:16;2.70;87.80
23633;DHT22;11993;48.748;9.166;2023-02-01T01:15:42;2.70;87.60
23633;DHT22;11993;48.748;9.166;2023-02-01T01:18:08;2.70;87.70
23633;DHT22;11993;48.748;9.166;2023-02-01T01:20:35;2.60;87.60
23633;DHT22;11993;48.748;9.166;2023-02-01T01:23:02;2.70;87.50
23633;DHT22;11993;48.748;9.166;2023-02-01T01:25:28;2.70;87.40
23633;DHT22;11993;48.748;9.166;2023-02-01T01:27:54;2.60;87.60
23633;DHT22;11993;48.748;9.166;2023-02-01T01:30:19;2.60;87.50
23633;DHT22;11993;48.748;9.166;2023-02-01T01:32:45;2.60;87.50
23633;DHT22;11993;48.748;9.166;2023-02-01T01:35:11;2.70;87.40
23633;DHT22;11993;48.748;9.166;2023-02-01T01:37:36;2.60;87.40
23633;DHT22;11993;48.748;9.166;2023-02-01T01:40:06;2.60;87.40
23633;DHT22;11993;48.748;9.166;2023-02-01T01:42:39;2.70;87.20
23633;DHT22;11993;48.748;9.166;2023-02-01T01:45:52;2.70;87.00
23633;DHT22;11993;48.748;9.166;2023-02-01T01:48:07;2.80;87.00
23633;DHT22;11993;48.748;9.166;2023-02-01T01:50:45;2.80;86.90
23633;DHT22;11993;48.748;9.166;2023-02-01T01:53:17;2.80;86.80
23633;DHT22;11993;48.748;9.166;2023-02-01T01:55:46;2.70;87.10
23633;DHT22;11993;48.748;9.166;2023-02-01T01:58:19;2.70;87.20
23633;DHT22;11993;48.748;9.166;2023-02-01T02:00:45;2.60;87.40
23633;DHT22;11993;48.748;9.166;2023-02-01T02:03:20;2.70;87.20
23633;DHT22;11993;48.748;9.166;2023-02-01T02:05:49;2.80;87.00
23633;DHT22;11993;48.748;9.166;2023-02-01T02:08:17;2.70;87.10
23633;DHT22;11993;48.748;9.166;2023-02-01T02:10:48;2.70;87.30
23633;DHT22;11993;48.748;9.166;2023-02-01T02:13:41;2.80;87.20
23633;DHT22;11993;48.748;9.166;2023-02-01T02:33:13;2.80;87.30
23633;DHT22;11993;48.748;9.166;2023-02-01T02:35:46;2.70;87.30
23633;DHT22;11993;48.748;9.166;2023-02-01T02:43:46;2.70;87.30
23633;DHT22;11993;48.748;9.166;2023-02-01T02:46:37;2.80;87.10
23633;DHT22;11993;48.748;9.166;2023-02-01T02:49:42;2.90;87.10
23633;DHT22;11993;48.748;9.166;2023-02-01T02:52:30;2.90;87.00
23633;DHT22;11993;48.748;9.166;2023-02-01T02:55:16;2.90;87.00
23633;DHT22;11993;48.748;9.166;2023-02-01T02:57:44;2.90;87.20
23633;DHT22;11993;48.748;9.166;2023-02-01T03:00:31;2.80;87.20
23633;DHT22;11993;48.748;9.166;2023-02-01T03:03:16;2.80;87.60
23633;DHT22;11993;48.748;9.166;2023-02-01T03:06:00;2.90;87.70
23633;DHT22;11993;48.748;9.166;2023-02-01T03:08:28;2.80;87.90
23633;DHT22;11993;48.748;9.166;2023-02-01T03:13:36;2.80;87.90
23633;DHT22;11993;48.748;9.166;2023-02-01T03:19:08;2.80;87.80
23633;DHT22;11993;48.748;9.166;2023-02-01T03:24:20;2.80;87.80
23633;DHT22;11993;48.748;9.166;2023-02-01T03:26:52;2.90;87.70
23633;DHT22;11993;48.748;9.166;2023-02-01T03:29:23;2.80;87.90
23633;DHT22;11993;48.748;9.166;2023-02-01T03:31:49;2.90;87.80
23633;DHT22;11993;48.748;9.166;2023-02-01T03:34:16;2.80;88.00
23633;DHT22;11993;48.748;9.166;2023-02-01T03:36:56;2.90;88.10
23633;DHT22;11993;48.748;9.166;2023-02-01T03:42:04;2.90;88.10
23633;DHT22;11993;48.748;9.166;2023-02-01T03:45:27;2.80;88.00
23633;DHT22;11993;48.748;9.166;2023-02-01T03:47:37;2.80;88.10
23633;DHT22;11993;48.748;9.166;2023-02-01T03:50:07;2.80;88.20
23633;DHT22;11993;48.748;9.166;2023-02-01T03:52:40;2.70;88.40
23633;DHT22;11993;48.748;9.166;2023-02-01T03:55:07;2.70;88.50
23633;DHT22;11993;48.748;9.166;2023-02-01T03:57:37;2.70;88.60
23633;DHT22;11993;48.748;9.166;2023-02-01T04:00:20;2.80;88.40
23633;DHT22;11993;48.748;9.166;2023-02-01T04:02:47;2.90;88.30
23633;DHT22;11993;48.748;9.166;2023-02-01T04:05:13;2.90;88.10
23633;DHT22;11993;48.748;9.166;2023-02-01T04:07:38;2.80;88.10
23633;DHT22;11993;48.748;9.166;2023-02-01T04:10:04;2.80;88.20
23633;DHT22;11993;48.748;9.166;2023-02-01T04:12:30;2.80;88.30
23633;DHT22;11993;48.748;9.166;2023-02-01T04:14:55;2.80;88.10
23633;DHT22;11993;48.748;9.166;2023-02-01T04:17:21;2.80;87.90
23633;DHT22;11993;48.748;9.166;2023-02-01T04:19:46;2.70;88.30
23633;DHT22;11993;48.748;9.166;2023-02-01T04:22:12;2.80;88.30
23633;DHT22;11993;48.748;9.166;2023-02-01T04:24:38;2.80;88.20
23633;DHT22;11993;48.748;9.166;2023-02-01T04:27:04;2.80;88.10
23633;DHT22;11993;48.748;9.166;2023-02-01T04:29:29;2.80;88.20
23633;DHT22;11993;48.748;9.166;2023-02-01T04:31:55;2.90;88.00
23633;DHT22;11993;48.748;9.166;2023-02-01T04:34:20;2.90;87.90
23633;DHT22;11993;48.748;9.166;2023-02-01T04:36:48;2.90;88.10
23633;DHT22;11993;48.748;9.166;2023-02-01T04:39:13;3.00;87.90
23633;DHT22;11993;48.748;9.166;2023-02-01T04:41:39;3.00;87.60
23633;DHT22;11993;48.748;9.166;2023-02-01T04:44:04;3.10;87.60
23633;DHT22;11993;48.748;9.166;2023-02-01T04:46:30;3.00;87.50
23633;DHT22;11993;48.748;9.166;2023-02-01T04:48:55;3.00;87.60
23633;DHT22;11993;48.748;9.166;2023-02-01T04:51:21;3.00;87.60
23633;DHT22;11993;48.748;9.166;2023-02-01T04:53:47;3.00;87.40
23633;DHT22;11993;48.748;9.166;2023-02-01T04:56:13;3.10;87.10
23633;DHT22;11993;48.748;9.166;2023-02-01T04:58:38;3.10;86.90
23633;DHT22;11993;48.748;9.166;2023-02-01T05:01:06;3.10;86.70
23633;DHT22;11993;48.748;9.166;2023-02-01T05:03:32;3.20;86.80
23633;DHT22;11993;48.748;9.166;2023-02-01T05:05:58;3.20;86.60
23633;DHT22;11993;48.748;9.166;2023-02-01T05:08:24;3.20;86.50
23633;DHT22;11993;48.748;9.166;2023-02-01T05:10:51;3.20;86.50
23633;DHT22;11993;48.748;9.166;2023-02-01T05:13:16;3.20;86.60
23633;DHT22;11993;48.748;9.166;2023-02-01T05:16:00;3.20;86.40
23633;DHT22;11993;48.748;9.166;2023-02-01T05:18:26;3.20;86.30
23633;DHT22;11993;48.748;9.166;2023-02-01T05:20:52;3.20;86.40
23633;DHT22;11993;48.748;9.166;2023-02-01T05:23:17;3.20;86.40
23633;DHT22;11993;48.748;9.166;2023-02-01T05:25:43;3.20;86.40
23633;DHT22;11993;48.748;9.166;2023-02-01T05:28:08;3.30;86.20
23633;DHT22;11993;48.748;9.166;2023-02-01T05:30:35;3.20;86.00
23633;DHT22;11993;48.748;9.166;2023-02-01T05:33:02;3.20;86.20
23633;DHT22;11993;48.748;9.166;2023-02-01T05:35:27;3.20;86.20
23633;DHT22;11993;48.748;9.166;2023-02-01T05:37:53;3.20;86.20
23633;DHT22;11993;48.748;9.166;2023-02-01T05:40:19;3.20;86.30
23633;DHT22;11993;48.748;9.166;2023-02-01T05:42:46;3.20;86.30
23633;DHT22;11993;48.748;9.166;2023-02-01T05:45:11;3.20;86.30
23633;DHT22;11993;48.748;9.166;2023-02-01T05:47:37;3.20;86.30
23633;DHT22;11993;48.748;9.166;2023-02-01T05:50:03;3.20;86.30
23633;DHT22;11993;48.748;9.166;2023-02-01T05:52:30;3.20;86.40
23633;DHT22;11993;48.748;9.166;2023-02-01T05:54:55;3.20;86.60
23633;DHT22;11993;48.748;9.166;2023-02-01T05:57:21;3.20;86.70
23633;DHT22;11993;48.748;9.166;2023-02-01T05:59:47;3.20;86.80
23633;DHT22;11993;48.748;9.166;2023-02-01T06:02:17;3.00;87.10
23633;DHT22;11993;48.748;9.166;2023-02-01T06:04:43;3.10;87.50
23633;DHT22;11993;48.748;9.166;2023-02-01T06:07:09;3.00;87.60
23633;DHT22;11993;48.748;9.166;2023-02-01T06:09:36;3.00;87.80
23633;DHT22;11993;48.748;9.166;2023-02-01T06:12:02;2.90;88.00
23633;DHT22;11993;48.748;9.166;2023-02-01T06:14:28;2.90;88.00
23633;DHT22;11993;48.748;9.166;2023-02-01T06:16:54;2.90;88.10
23633;DHT22;11993;48.748;9.166;2023-02-01T06:19:21;2.90;88.10
23633;DHT22;11993;48.748;9.166;2023-02-01T06:21:46;2.90;88.10
23633;DHT22;11993;48.748;9.166;2023-02-01T06:24:12;2.90;88.20
23633;DHT22;11993;48.748;9.166;2023-02-01T06:26:38;2.90;88.30
23633;DHT22;11993;48.748;9.166;2023-02-01T06:29:05;2.80;88.20
23633;DHT22;11993;48.748;9.166;2023-02-01T06:31:32;2.90;88.20
23633;DHT22;11993;48.748;9.166;2023-02-01T06:33:57;2.90;88.10
23633;DHT22;11993;48.748;9.166;2023-02-01T06:36:23;2.90;88.00
23633;DHT22;11993;48.748;9.166;2023-02-01T06:38:49;2.90;87.80
23633;DHT22;11993;48.748;9.166;2023-02-01T06:41:14;3.10;87.80
23633;DHT22;11993;48.748;9.166;2023-02-01T06:43:40;3.00;87.60
23633;DHT22;11993;48.748;9.166;2023-02-01T06:46:11;3.10;87.60
23633;DHT22;11993;48.748;9.166;2023-02-01T06:48:38;3.10;87.40
23633;DHT22;11993;48.748;9.166;2023-02-01T06:51:04;3.10;87.10
23633;DHT22;11993;48.748;9.166;2023-02-01T06:53:30;3.20;86.70
23633;DHT22;11993;48.748;9.166;2023-02-01T06:55:58;3.30;86.40
23633;DHT22;11993;48.748;9.166;2023-02-01T06:58:27;3.30;86.20
23633;DHT22;11993;48.748;9.166;2023-02-01T07:00:54;3.40;86.00
23633;DHT22;11993;48.748;9.166;2023-02-01T07:03:20;3.40;85.80
23633;DHT22;11993;48.748;9.166;2023-02-01T07:05:46;3.50;85.70
23633;DHT22;11993;48.748;9.166;2023-02-01T07:08:12;3.50;85.70
23633;DHT22;11993;48.748;9.166;2023-02-01T07:10:37;3.40;85.80
23633;DHT22;11993;48.748;9.166;2023-02-01T07:13:03;3.50;85.80
23633;DHT22;11993;48.748;9.166;2023-02-01T07:15:29;3.50;85.60
23633;DHT22;11993;48.748;9.166;2023-02-01T07:17:55;3.40;85.60
23633;DHT22;11993;48.748;9.166;2023-02-01T07:20:20;3.40;85.60
23633;DHT22;11993;48.748;9.166;2023-02-01T07:22:46;3.40;85.60
23633;DHT22;11993;48.748;9.166;2023-02-01T07:25:12;3.40;85.50
23633;DHT22;11993;48.748;9.166;2023-02-01T07:27:37;3.40;85.60
23633;DHT22;11993;48.748;9.166;2023-02-01T07:30:06;3.50;85.60
23633;DHT22;11993;48.748;9.166;2023-02-01T07:32:32;3.40;85.70
23633;DHT22;11993;48.748;9.166;2023-02-01T07:34:58;3.40;85.90
23633;DHT22;11993;48.748;9.166;2023-02-01T07:37:24;3.40;85.70
23633;DHT22;11993;48.748;9.166;2023-02-01T07:39:50;3.40;85.60
23633;DHT22;11993;48.748;9.166;2023-02-01T07:42:16;3.40;85.50
23633;DHT22;11993;48.748;9.166;2023-02-01T07:44:42;3.50;85.40
23633;DHT22;11993;48.748;9.166;2023-02-01T07:47:08;3.50;85.30
23633;DHT22;11993;48.748;9.166;2023-02-01T07:49:33;3.50;85.00
23633;DHT22;11993;48.748;9.166;2023-02-01T07:51:59;3.60;84.80
23633;DHT22;11993;48.748;9.166;2023-02-01T07:54:24;3.60;84.50
23633;DHT22;11993;48.748;9.166;2023-02-01T07:56:50;3.70;84.30
23633;DHT22;11993;48.748;9.166;2023-02-01T07:59:16;3.60;84.20
23633;DHT22;11993;48.748;9.166;2023-02-01T08:01:42;3.60;84.00
23633;DHT22;11993;48.748;9.166;2023-02-01T08:04:13;3.70;84.00
23633;DHT22;11993;48.748;9.166;2023-02-01T08:06:39;3.70;83.90
23633;DHT22;11993;48.748;9.166;2023-02-01T08:09:05;3.70;84.10
23633;DHT22;11993;48.748;9.166;2023-02-01T08:11:31;3.70;84.30
23633;DHT22;11993;48.748;9.166;2023-02-01T08:13:58;3.70;84.30
23633;DHT22;11993;48.748;9.166;2023-02-01T08:16:24;3.70;84.40
23633;DHT22;11993;48.748;9.166;2023-02-01T08:18:50;3.70;84.40
23633;DHT22;11993;48.748;9.166;2023-02-01T08:21:19;3.60;84.60
23633;DHT22;11993;48.748;9.166;2023-02-01T08:23:45;3.60;84.70
23633;DHT22;11993;48.748;9.166;2023-02-01T08:28:47;3.50;85.00
23633;DHT22;11993;48.748;9.166;2023-02-01T08:31:15;3.60;84.90
23633;DHT22;11993;48.748;9.166;2023-02-01T08:33:42;3.60;84.60
23633;DHT22;11993;48.748;9.166;2023-02-01T08:36:10;3.60;84.60
23633;DHT22;11993;48.748;9.166;2023-02-01T08:38:37;3.70;84.40
23633;DHT22;11993;48.748;9.166;2023-02-01T08:41:08;3.70;84.20
23633;DHT22;11993;48.748;9.166;2023-02-01T08:43:35;3.80;83.70
23633;DHT22;11993;48.748;9.166;2023-02-01T08:46:01;3.90;83.50
23633;DHT22;11993;48.748;9.166;2023-02-01T08:48:28;4.10;83.10
23633;DHT22;11993;48.748;9.166;2023-02-01T08:50:53;4.10;82.50
23633;DHT22;11993;48.748;9.166;2023-02-01T08:53:19;4.20;82.10
23633;DHT22;11993;48.748;9.166;2023-02-01T08:55:46;4.20;81.50
23633;DHT22;11993;48.748;9.166;2023-02-01T08:58:12;4.20;81.60
23633;DHT22;11993;48.748;9.166;2023-02-01T09:00:40;4.20;81.30
23633;DHT22;11993;48.748;9.166;2023-02-01T09:03:07;4.30;80.60
23633;DHT22;11993;48.748;9.166;2023-02-01T09:05:34;4.30;80.20
23633;DHT22;11993;48.748;9.166;2023-02-01T09:08:00;4.30;80.20
23633;DHT22;11993;48.748;9.166;2023-02-01T09:10:25;4.40;79.60
23633;DHT22;11993;48.748;9.166;2023-02-01T09:12:51;4.30;79.80
23633;DHT22;11993;48.748;9.166;2023-02-01T09:15:17;4.40;80.00
23633;DHT22;11993;48.748;9.166;2023-02-01T09:17:43;4.30;80.40
23633;DHT22;11993;48.748;9.166;2023-02-01T09:20:09;4.30;80.30
23633;DHT22;11993;48.748;9.166;2023-02-01T09:22:35;4.30;79.80
23633;DHT22;11993;48.748;9.166;2023-02-01T09:25:00;4.40;79.60
23633;DHT22;11993;48.748;9.166;2023-02-01T09:27:26;4.30;79.60
23633;DHT22;11993;48.748;9.166;2023-02-01T09:29:51;4.30;79.20
23633;DHT22;11993;48.748;9.166;2023-02-01T09:32:21;4.30;78.90
23633;DHT22;11993;48.748;9.166;2023-02-01T09:34:48;4.40;78.90
23633;DHT22;11993;48.748;9.166;2023-02-01T09:37:13;4.40;79.10
23633;DHT22;11993;48.748;9.166;2023-02-01T09:39:39;4.50;78.90
23633;DHT22;11993;48.748;9.166;2023-02-01T09:47:24;4.70;78.20
23633;DHT22;11993;48.748;9.166;2023-02-01T09:50:14;4.90;77.60
23633;DHT22;11993;48.748;9.166;2023-02-01T09:52:55;4.80;77.30
23633;DHT22;11993;48.748;9.166;2023-02-01T09:55:50;4.80;76.90
23633;DHT22;11993;48.748;9.166;2023-02-01T09:58:35;4.90;76.90
23633;DHT22;11993;48.748;9.166;2023-02-01T10:01:04;5.00;76.80
23633;DHT22;11993;48.748;9.166;2023-02-01T10:03:33;5.10;76.30
23633;DHT22;11993;48.748;9.166;2023-02-01T10:08:53;5.10;75.00
23633;DHT22;11993;48.748;9.166;2023-02-01T10:24:50;5.10;73.50
23633;DHT22;11993;48.748;9.166;2023-02-01T10:27:29;5.20;73.60
23633;DHT22;11993;48.748;9.166;2023-02-01T10:30:00;4.90;73.60
23633;DHT22;11993;48.748;9.166;2023-02-01T10:32:31;4.90;73.80
23633;DHT22;11993;48.748;9.166;2023-02-01T10:35:08;5.00;73.50
23633;DHT22;11993;48.748;9.166;2023-02-01T10:37:35;5.10;72.60
23633;DHT22;11993;48.748;9.166;2023-02-01T10:42:43;5.10;72.80
23633;DHT22;11993;48.748;9.166;2023-02-01T10:45:18;5.10;72.30
23633;DHT22;11993;48.748;9.166;2023-02-01T10:47:46;5.20;72.40
23633;DHT22;11993;48.748;9.166;2023-02-01T10:56:10;5.20;71.70
23633;DHT22;11993;48.748;9.166;2023-02-01T10:58:47;5.10;71.50
23633;DHT22;11993;48.748;9.166;2023-02-01T11:01:19;5.10;70.90
23633;DHT22;11993;48.748;9.166;2023-02-01T11:03:57;5.00;71.80
23633;DHT22;11993;48.748;9.166;2023-02-01T11:08:54;5.10;71.00
23633;DHT22;11993;48.748;9.166;2023-02-01T11:11:21;5.10;70.90
23633;DHT22;11993;48.748;9.166;2023-02-01T11:14:02;5.20;71.10
23633;DHT22;11993;48.748;9.166;2023-02-01T11:16:38;5.20;70.70
23633;DHT22;11993;48.748;9.166;2023-02-01T11:19:05;5.30;70.30
23633;DHT22;11993;48.748;9.166;2023-02-01T11:21:35;5.30;70.30
23633;DHT22;11993;48.748;9.166;2023-02-01T11:24:05;5.20;70.10
23633;DHT22;11993;48.748;9.166;2023-02-01T11:26:39;5.10;70.40
23633;DHT22;11993;48.748;9.166;2023-02-01T11:29:13;5.20;70.40
23633;DHT22;11993;48.748;9.166;2023-02-01T11:31:40;5.20;69.70
23633;DHT22;11993;48.748;9.166;2023-02-01T11:34:15;5.30;70.00
23633;DHT22;11993;48.748;9.166;2023-02-01T11:36:42;5.20;69.80
23633;DHT22;11993;48.748;9.166;2023-02-01T11:39:23;5.20;69.70
23633;DHT22;11993;48.748;9.166;2023-02-01T11:44:36;5.20;69.00
23633;DHT22;11993;48.748;9.166;2023-02-01T11:47:27;5.20;69.00
23633;DHT22;11993;48.748;9.166;2023-02-01T11:50:00;5.20;68.40
23633;DHT22;11993;48.748;9.166;2023-02-01T12:06:33;5.40;67.60
23633;DHT22;11993;48.748;9.166;2023-02-01T12:11:51;5.40;67.60
23633;DHT22;11993;48.748;9.166;2023-02-01T12:14:49;5.20;67.90
23633;DHT22;11993;48.748;9.166;2023-02-01T12:17:36;5.20;68.40
23633;DHT22;11993;48.748;9.166;2023-02-01T12:23:20;5.30;68.10
23633;DHT22;11993;48.748;9.166;2023-02-01T12:26:00;5.30;67.50
23633;DHT22;11993;48.748;9.166;2023-02-01T12:28:41;5.30;67.30
23633;DHT22;11993;48.748;9.166;2023-02-01T12:39:31;5.00;68.70
23633;DHT22;11993;48.748;9.166;2023-02-01T12:42:17;4.90;69.40
23633;DHT22;11993;48.748;9.166;2023-02-01T12:47:51;5.00;68.90
23633;DHT22;11993;48.748;9.166;2023-02-01T12:50:43;5.00;69.00
23633;DHT22;11993;48.748;9.166;2023-02-01T12:53:17;5.00;68.80
23633;DHT22;11993;48.748;9.166;2023-02-01T12:55:55;5.00;69.40
23633;DHT22;11993;48.748;9.166;2023-02-01T13:01:03;4.80;69.30
23633;DHT22;11993;48.748;9.166;2023-02-01T13:03:54;4.90;69.80
23633;DHT22;11993;48.748;9.166;2023-02-01T13:06:37;4.90;69.50
23633;DHT22;11993;48.748;9.166;2023-02-01T13:09:19;5.00;69.40
23633;DHT22;11993;48.748;9.166;2023-02-01T13:11:50;5.00;69.80
23633;DHT22;11993;48.748;9.166;2023-02-01T13:14:38;5.00;69.80
23633;DHT22;11993;48.748;9.166;2023-02-01T13:17:15;5.00;70.20
23633;DHT22;11993;48.748;9.166;2023-02-01T13:19:54;5.10;69.90
23633;DHT22;11993;48.748;9.166;2023-02-01T13:22:29;4.90;70.30
23633;DHT22;11993;48.748;9.166;2023-02-01T13:25:05;4.90;70.60
23633;DHT22;11993;48.748;9.166;2023-02-01T13:27:37;4.80;70.40
23633;DHT22;11993;48.748;9.166;2023-02-01T13:30:16;4.90;70.20
23633;DHT22;11993;48.748;9.166;2023-02-01T13:33:12;4.90;70.30
23633;DHT22;11993;48.748;9.166;2023-02-01T13:43:55;4.90;70.20
23633;DHT22;11993;48.748;9.166;2023-02-01T13:46:23;4.90;70.50
23633;DHT22;11993;48.748;9.166;2023-02-01T13:48:55;4.90;70.20
23633;DHT22;11993;48.748;9.166;2023-02-01T13:51:42;4.90;70.20
23633;DHT22;11993;48.748;9.166;2023-02-01T13:56:49;4.90;70.20
23633;DHT22;11993;48.748;9.166;2023-02-01T14:21:18;4.90;70.50
23633;DHT22;11993;48.748;9.166;2023-02-01T14:23:46;4.80;70.90
23633;DHT22;11993;48.748;9.166;2023-02-01T14:26:18;4.80;71.00
23633;DHT22;11993;48.748;9.166;2023-02-01T14:28:56;4.80;71.00
23633;DHT22;11993;48.748;9.166;2023-02-01T14:31:39;4.90;70.10
23633;DHT22;11993;48.748;9.166;2023-02-01T14:34:16;4.90;70.10
23633;DHT22;11993;48.748;9.166;2023-02-01T14:36:49;4.80;70.40
23633;DHT22;11993;48.748;9.166;2023-02-01T14:39:30;4.90;70.20
23633;DHT22;11993;48.748;9.166;2023-02-01T14:42:00;4.90;70.40
23633;DHT22;11993;48.748;9.166;2023-02-01T14:44:29;4.90;70.00
23633;DHT22;11993;48.748;9.166;2023-02-01T14:47:09;4.90;70.20
23633;DHT22;11993;48.748;9.166;2023-02-01T14:49:49;4.90;70.30
23633;DHT22;11993;48.748;9.166;2023-02-01T14:52:20;4.80;70.60
23633;DHT22;11993;48.748;9.166;2023-02-01T14:54:52;4.80;71.00
23633;DHT22;11993;48.748;9.166;2023-02-01T14:57:20;4.80;70.90
23633;DHT22;11993;48.748;9.166;2023-02-01T14:59:49;4.80;71.00
23633;DHT22;11993;48.748;9.166;2023-02-01T15:02:23;4.80;71.10
23633;DHT22;11993;48.748;9.166;2023-02-01T15:04:54;4.80;71.40
23633;DHT22;11993;48.748;9.166;2023-02-01T15:07:21;4.80;71.60
23633;DHT22;11993;48.748;9.166;2023-02-01T15:09:49;4.80;71.40
23633;DHT22;11993;48.748;9.166;2023-02-01T15:12:27;4.80;71.50
23633;DHT22;11993;48.748;9.166;2023-02-01T15:15:12;4.80;71.60
23633;DHT22;11993;48.748;9.166;2023-02-01T15:17:38;4.80;71.80
23633;DHT22;11993;48.748;9.166;2023-02-01T15:20:12;4.80;71.90
23633;DHT22;11993;48.748;9.166;2023-02-01T15:22:38;4.80;71.80
23633;DHT22;11993;48.748;9.166;2023-02-01T15:25:04;4.80;72.00
23633;DHT22;11993;48.748;9.166;2023-02-01T15:27:31;4.70;72.00
23633;DHT22;11993;48.748;9.166;2023-02-01T15:30:19;4.70;72.00
23633;DHT22;11993;48.748;9.166;2023-02-01T15:32:45;4.70;72.40
23633;DHT22;11993;48.748;9.166;2023-02-01T15:35:38;4.70;73.30
23633;DHT22;11993;48.748;9.166;2023-02-01T15:41:13;4.70;73.70
23633;DHT22;11993;48.748;9.166;2023-02-01T15:43:41;4.70;73.00
23633;DHT22;11993;48.748;9.166;2023-02-01T15:46:21;4.70;72.80
23633;DHT22;11993;48.748;9.166;2023-02-01T15:48:50;4.70;72.70
23633;DHT22;11993;48.748;9.166;2023-02-01T15:51:24;4.70;72.40
23633;DHT22;11993;48.748;9.166;2023-02-01T15:53:55;4.70;72.50
23633;DHT22;11993;48.748;9.166;2023-02-01T15:56:24;4.70;71.50
23633;DHT22;11993;48.748;9.166;2023-02-01T15:58:54;4.70;71.40
23633;DHT22;11993;48.748;9.166;2023-02-01T16:01:20;4.70;71.00
23633;DHT22;11993;48.748;9.166;2023-02-01T16:03:46;4.70;70.80
23633;DHT22;11993;48.748;9.166;2023-02-01T16:09:00;4.80;69.80
23633;DHT22;11993;48.748;9.166;2023-02-01T16:11:41;4.70;70.00
23633;DHT22;11993;48.748;9.166;2023-02-01T16:14:07;4.70;70.00
23633;DHT22;11993;48.748;9.166;2023-02-01T16:16:32;4.70;69.90
23633;DHT22;11993;48.748;9.166;2023-02-01T16:18:58;4.80;69.90
23633;DHT22;11993;48.748;9.166;2023-02-01T16:21:23;4.80;69.90
23633;DHT22;11993;48.748;9.166;2023-02-01T16:23:50;4.70;70.50
23633;DHT22;11993;48.748;9.166;2023-02-01T16:26:17;4.80;70.50
23633;DHT22;11993;48.748;9.166;2023-02-01T16:28:44;4.80;70.40
23633;DHT22;11993;48.748;9.166;2023-02-01T16:31:12;4.80;70.60
23633;DHT22;11993;48.748;9.166;2023-02-01T16:33:53;4.80;70.80
23633;DHT22;11993;48.748;9.166;2023-02-01T16:36:20;4.70;70.90
23633;DHT22;11993;48.748;9.166;2023-02-01T16:38:48;4.70;70.60
23633;DHT22;11993;48.748;9.166;2023-02-01T16:41:17;4.70;70.80
23633;DHT22;11993;48.748;9.166;2023-02-01T16:43:43;4.70;71.10
23633;DHT22;11993;48.748;9.166;2023-02-01T16:46:14;4.70;71.00
23633;DHT22;11993;48.748;9.166;2023-02-01T16:48:42;4.70;71.20
23633;DHT22;11993;48.748;9.166;2023-02-01T16:51:10;4.70;71.10
23633;DHT22;11993;48.748;9.166;2023-02-01T16:53:36;4.70;71.00
23633;DHT22;11993;48.748;9.166;2023-02-01T16:56:14;4.70;71.10
23633;DHT22;11993;48.748;9.166;2023-02-01T16:58:40;4.70;70.90
23633;DHT22;11993;48.748;9.166;2023-02-01T17:01:09;4.70;71.00
23633;DHT22;11993;48.748;9.166;2023-02-01T17:03:35;4.70;70.90
23633;DHT22;11993;48.748;9.166;2023-02-01T17:06:01;4.70;70.90
23633;DHT22;11993;48.748;9.166;2023-02-01T17:08:35;4.70;70.70
23633;DHT22;11993;48.748;9.166;2023-02-01T17:11:02;4.70;70.90
23633;DHT22;11993;48.748;9.166;2023-02-01T17:13:28;4.50;71.30
23633;DHT22;11993;48.748;9.166;2023-02-01T17:16:01;4.50;71.50
23633;DHT22;11993;48.748;9.166;2023-02-01T17:18:33;4.50;71.40
23633;DHT22;11993;48.748;9.166;2023-02-01T17:21:00;4.50;71.20
23633;DHT22;11993;48.748;9.166;2023-02-01T17:23:28;4.50;71.40
23633;DHT22;11993;48.748;9.166;2023-02-01T17:25:54;4.50;71.50
23633;DHT22;11993;48.748;9.166;2023-02-01T17:28:20;4.50;71.00
23633;DHT22;11993;48.748;9.166;2023-02-01T17:30:45;4.50;71.30
23633;DHT22;11993;48.748;9.166;2023-02-01T17:33:18;4.50;71.30
23633;DHT22;11993;48.748;9.166;2023-02-01T17:35:45;4.50;71.40
23633;DHT22;11993;48.748;9.166;2023-02-01T17:38:11;4.60;71.40
23633;DHT22;11993;48.748;9.166;2023-02-01T17:40:36;4.60;71.40
23633;DHT22;11993;48.748;9.166;2023-02-01T17:43:02;4.60;71.60
23633;DHT22;11993;48.748;9.166;2023-02-01T17:45:35;4.60;71.60
23633;DHT22;11993;48.748;9.166;2023-02-01T17:48:05;4.50;71.70
23633;DHT22;11993;48.748;9.166;2023-02-01T17:50:34;4.50;71.70
23633;DHT22;11993;48.748;9.166;2023-02-01T17:53:01;4.60;72.00
23633;DHT22;11993;48.748;9.166;2023-02-01T17:55:28;4.60;72.00
23633;DHT22;11993;48.748;9.166;2023-02-01T17:57:53;4.60;71.80
23633;DHT22;11993;48.748;9.166;2023-02-01T18:00:19;4.50;72.10
23633;DHT22;11993;48.748;9.166;2023-02-01T18:02:45;4.50;72.20
23633;DHT22;11993;48.748;9.166;2023-02-01T18:05:40;4.40;72.40
23633;DHT22;11993;48.748;9.166;2023-02-01T18:08:07;4.40;72.70
23633;DHT22;11993;48.748;9.166;2023-02-01T18:10:33;4.40;73.00
23633;DHT22;11993;48.748;9.166;2023-02-01T18:13:00;4.40;72.70
23633;DHT22;11993;48.748;9.166;2023-02-01T18:15:26;4.40;72.70
23633;DHT22;11993;48.748;9.166;2023-02-01T18:17:53;4.40;72.80
23633;DHT22;11993;48.748;9.166;2023-02-01T18:20:21;4.40;72.90
23633;DHT22;11993;48.748;9.166;2023-02-01T18:22:48;4.40;73.20
23633;DHT22;11993;48.748;9.166;2023-02-01T18:25:19;4.50;72.90
23633;DHT22;11993;48.748;9.166;2023-02-01T18:27:46;4.40;73.10